Time;durP1;ratioP1;P1;durP2;ratioP2;P2;SDS_P1;SDS_P2;PMS_P1;PMS_P2;Temp;Humidity;BMP_temperature;BMP_pressure;BME280_temperature;BME280_humidity;BME280_pressure;Samples;Min_cycle;Max_cycle;Signal;HPM_P1;HPM_P2
2023/10/23 00:00:02;;;;;;;6.07;3.30;;;;;;;7.12;100.00;100327.69;5040449;28;20236;-66
2023/10/23 00:02:30;;;;;;;6.10;3.20;;;;;;;7.03;100.00;100323.06;5042597;28;20281;-66
2023/10/23 00:04:57;;;;;;;4.33;2.70;;;;;;;6.99;100.00;100328.22;5040009;28;20199;-66
2023/10/23 00:07:24;;;;;;;4.80;2.93;;;;;;;6.95;100.00;100327.25;5040924;28;20217;-66
2023/10/23 00:09:51;;;;;;;5.03;2.93;;;;;;;6.85;100.00;100331.41;5042618;28;20266;-66
2023/10/23 00:12:17;;;;;;;4.87;2.90;;;;;;;6.86;100.00;100329.66;5041423;28;21458;-66
2023/10/23 00:14:44;;;;;;;4.70;2.63;;;;;;;6.89;100.00;100330.63;5040312;28;20306;-66
2023/10/23 00:17:10;;;;;;;5.63;3.00;;;;;;;6.85;100.00;100341.03;5040750;28;23202;-66
2023/10/23 00:19:36;;;;;;;3.80;2.43;;;;;;;6.92;100.00;100345.59;5040343;28;20494;-66
2023/10/23 00:22:03;;;;;;;4.20;2.80;;;;;;;6.82;100.00;100333.94;5047469;28;20226;-66
2023/10/23 00:24:29;;;;;;;7.37;2.80;;;;;;;6.73;100.00;100336.28;5037543;28;20683;-66
2023/10/23 00:26:56;;;;;;;6.07;2.50;;;;;;;6.73;100.00;100336.28;5042275;28;20199;-66
2023/10/23 00:29:22;;;;;;;5.60;2.07;;;;;;;6.80;100.00;100338.25;5039453;28;20202;-66
2023/10/23 00:31:48;;;;;;;7.80;2.40;;;;;;;6.79;100.00;100340.84;5040390;28;20210;-66
2023/10/23 00:34:15;;;;;;;3.80;2.43;;;;;;;6.80;100.00;100337.34;5039314;28;20295;-66
2023/10/23 00:36:41;;;;;;;4.13;2.53;;;;;;;6.66;100.00;100334.34;5040158;28;20241;-66
2023/10/23 00:39:08;;;;;;;3.90;2.30;;;;;;;6.65;100.00;100339.56;5041370;28;20227;-66
2023/10/23 00:41:34;;;;;;;2.90;1.80;;;;;;;6.59;100.00;100332.41;5040440;28;20218;-66
2023/10/23 00:44:01;;;;;;;4.17;2.27;;;;;;;6.74;100.00;100335.44;5039832;28;20210;-66
2023/10/23 00:46:29;;;;;;;2.97;2.03;;;;;;;6.73;100.00;100343.28;5040769;28;20202;-66
2023/10/23 00:48:58;;;;;;;3.67;2.13;;;;;;;6.71;100.00;100338.00;5040225;28;20639;-66
2023/10/23 00:51:27;;;;;;;4.53;2.07;;;;;;;6.76;100.00;100346.91;5040119;28;20790;-66
2023/10/23 00:53:55;;;;;;;9.33;2.13;;;;;;;6.74;100.00;100334.56;5040469;28;20206;-66
2023/10/23 00:56:22;;;;;;;4.27;1.80;;;;;;;6.62;100.00;100347.38;5040383;28;20225;-66
2023/10/23 00:58:49;;;;;;;6.10;1.93;;;;;;;6.44;100.00;100346.00;5041505;28;20213;-66
2023/10/23 01:01:16;;;;;;;4.20;1.87;;;;;;;6.31;100.00;100342.97;5037965;28;20314;-66
2023/10/23 01:03:43;;;;;;;6.53;2.20;;;;;;;6.17;100.00;100350.44;5041495;28;20283;-66
2023/10/23 01:06:12;;;;;;;3.60;2.07;;;;;;;6.05;100.00;100345.72;5037031;28;20623;-66
2023/10/23 01:08:39;;;;;;;4.00;1.90;;;;;;;6.03;100.00;100344.78;5041362;28;20560;-66
2023/10/23 01:11:05;;;;;;;6.80;1.90;;;;;;;5.94;100.00;100345.34;5039371;28;20224;-66
2023/10/23 01:13:32;;;;;;;3.13;2.07;;;;;;;6.05;100.00;100342.19;5039643;28;20204;-66
2023/10/23 01:15:58;;;;;;;3.97;2.37;;;;;;;6.14;100.00;100338.09;5034174;28;20201;-66
2023/10/23 01:18:25;;;;;;;6.87;2.30;;;;;;;6.20;100.00;100340.91;5036825;28;20210;-67
2023/10/23 01:20:51;;;;;;;6.83;2.07;;;;;;;6.38;100.00;100343.19;5039302;28;20311;-66
2023/10/23 01:23:18;;;;;;;7.73;2.27;;;;;;;6.46;100.00;100343.44;5039688;28;20204;-66
2023/10/23 01:25:44;;;;;;;4.50;2.30;;;;;;;6.56;100.00;100353.34;5039128;28;20215;-66
2023/10/23 01:28:11;;;;;;;6.50;2.83;;;;;;;6.68;100.00;100347.53;5040222;28;20201;-66
2023/10/23 01:30:40;;;;;;;3.13;2.20;;;;;;;6.73;100.00;100348.56;5038707;28;20727;-66
2023/10/23 01:33:07;;;;;;;3.30;1.80;;;;;;;6.83;100.00;100346.25;5038907;28;20672;-66
2023/10/23 01:35:33;;;;;;;2.87;2.03;;;;;;;6.84;100.00;100349.78;5037517;28;20209;-66
2023/10/23 01:37:59;;;;;;;3.93;2.30;;;;;;;6.85;100.00;100341.91;5040190;28;20283;-66
2023/10/23 01:40:26;;;;;;;4.03;2.27;;;;;;;6.93;100.00;100351.75;5037619;28;20228;-66
2023/10/23 01:42:52;;;;;;;3.80;2.47;;;;;;;7.01;100.00;100343.22;5040285;28;20206;-66
2023/10/23 01:45:19;;;;;;;7.57;2.77;;;;;;;7.11;100.00;100346.97;5038762;28;20203;-66
2023/10/23 01:47:46;;;;;;;10.73;2.60;;;;;;;7.10;100.00;100355.72;5042517;28;20340;-66
2023/10/23 01:50:12;;;;;;;4.80;2.27;;;;;;;7.10;100.00;100351.34;5037953;28;20233;-66
2023/10/23 01:52:41;;;;;;;15.00;2.60;;;;;;;7.13;100.00;100350.53;5038323;28;20306;-66
2023/10/23 01:55:08;;;;;;;3.73;2.23;;;;;;;7.12;100.00;100349.66;5038045;28;20231;-66
2023/10/23 01:57:34;;;;;;;4.20;2.33;;;;;;;7.07;100.00;100356.53;5036824;28;20208;-66
2023/10/23 02:00:04;;;;;;;7.30;2.50;;;;;;;7.08;100.00;100346.91;5037057;28;20693;-66
2023/10/23 02:02:32;;;;;;;6.90;2.50;;;;;;;7.11;100.00;100345.22;5040086;28;20299;-66
2023/10/23 02:04:59;;;;;;;4.10;2.10;;;;;;;7.18;100.00;100346.28;5040104;28;20206;-66
2023/10/23 02:07:27;;;;;;;7.97;1.83;;;;;;;7.17;100.00;100350.66;5039015;28;20208;-66
2023/10/23 02:09:53;;;;;;;6.20;1.90;;;;;;;7.17;100.00;100350.66;5038377;28;20609;-66
2023/10/23 02:12:20;;;;;;;5.13;2.10;;;;;;;7.21;100.00;100341.13;5038636;28;20225;-66
2023/10/23 02:14:50;;;;;;;4.73;1.87;;;;;;;7.16;100.00;100346.25;5026303;28;20207;-66
2023/10/23 02:17:17;;;;;;;5.70;2.10;;;;;;;7.17;100.00;100342.75;5037362;28;20324;-66
2023/10/23 02:19:43;;;;;;;4.27;1.93;;;;;;;7.15;100.00;100356.72;5039558;28;20329;-66
2023/10/23 02:22:10;;;;;;;11.43;2.03;;;;;;;7.19;100.00;100345.44;5037364;28;20663;-66
2023/10/23 02:24:36;;;;;;;10.13;2.73;;;;;;;7.15;100.00;100340.94;5039379;28;20232;-66
2023/10/23 02:27:03;;;;;;;2.97;1.87;;;;;;;7.15;100.00;100355.00;5038965;28;20196;-66
2023/10/23 02:29:29;;;;;;;5.70;2.03;;;;;;;7.14;100.00;100350.56;5039059;28;20789;-67
2023/10/23 02:31:56;;;;;;;5.57;1.80;;;;;;;7.08;100.00;100349.53;5040852;28;20233;-66
2023/10/23 02:34:22;;;;;;;2.83;1.73;;;;;;;7.05;100.00;100350.34;5038171;28;20204;-66
2023/10/23 02:36:49;;;;;;;2.40;1.50;;;;;;;6.99;100.00;100355.44;5039167;28;20280;-66
2023/10/23 02:39:15;;;;;;;5.40;1.97;;;;;;;6.99;100.00;100351.94;5040100;28;20245;-66
2023/10/23 02:41:42;;;;;;;7.17;1.73;;;;;;;6.95;100.00;100348.31;5042425;28;20337;-66
2023/10/23 02:44:10;;;;;;;4.43;1.67;;;;;;;6.81;100.00;100350.59;5041517;28;20205;-67
2023/10/23 02:46:40;;;;;;;4.57;1.60;;;;;;;6.70;100.00;100354.63;5042851;28;20205;-67
2023/10/23 02:49:07;;;;;;;3.93;2.27;;;;;;;6.50;100.00;100354.06;5040379;28;20219;-67
2023/10/23 02:51:33;;;;;;;2.33;1.70;;;;;;;6.39;100.00;100359.84;5035292;28;20230;-66
2023/10/23 02:54:00;;;;;;;3.60;1.97;;;;;;;6.28;100.00;100362.16;5039438;28;20200;-66
2023/10/23 02:56:26;;;;;;;6.23;2.10;;;;;;;6.22;100.00;100365.50;5039163;28;20209;-66
2023/10/23 02:58:53;;;;;;;3.17;1.83;;;;;;;6.02;100.00;100364.03;5041232;28;20577;-66
2023/10/23 03:01:22;;;;;;;3.20;2.17;;;;;;;5.79;100.00;100370.25;5036240;28;20593;-66
2023/10/23 03:03:49;;;;;;;3.13;1.73;;;;;;;5.64;100.00;100373.28;5039313;28;20218;-66
2023/10/23 03:06:16;;;;;;;3.67;1.83;;;;;;;5.64;100.00;100371.53;5039071;28;20285;-66
2023/10/23 03:08:43;;;;;;;4.43;1.90;;;;;;;5.71;100.00;100374.38;5037382;28;20729;-66
2023/10/23 03:11:09;;;;;;;3.97;1.93;;;;;;;5.69;100.00;100371.69;5039356;28;20580;-66
2023/10/23 03:13:36;;;;;;;2.97;1.80;;;;;;;5.55;100.00;100368.59;5042622;28;20207;-66
2023/10/23 03:16:03;;;;;;;6.63;2.27;;;;;;;5.41;100.00;100375.13;5041024;28;20207;-66
2023/10/23 03:18:29;;;;;;;2.40;1.63;;;;;;;5.26;100.00;100380.75;5042935;28;20195;-66
2023/10/23 03:21:00;;;;;;;3.30;1.63;;;;;;;5.11;100.00;100374.06;5043122;28;21845;-66
2023/10/23 03:23:30;;;;;;;3.73;1.70;;;;;;;5.02;100.00;100374.66;5041486;28;20288;-66
2023/10/23 03:25:57;;;;;;;5.93;2.03;;;;;;;4.97;100.00;100371.88;5041716;28;20226;-66
2023/10/23 03:28:24;;;;;;;2.60;1.87;;;;;;;4.88;100.00;100363.66;5042031;28;20199;-66
2023/10/23 03:30:50;;;;;;;3.37;1.80;;;;;;;4.87;100.00;100364.50;5041210;28;20366;-66
2023/10/23 03:33:17;;;;;;;2.93;1.57;;;;;;;4.84;100.00;100371.38;5041127;28;20213;-66
2023/10/23 03:35:44;;;;;;;6.53;1.63;;;;;;;4.82;100.00;100375.69;5042572;28;20194;-66
2023/10/23 03:38:13;;;;;;;4.57;1.90;;;;;;;5.10;100.00;100373.19;5042607;28;20195;-66
2023/10/23 03:40:39;;;;;;;2.90;1.70;;;;;;;5.41;100.00;100383.00;5042455;28;20241;-66
2023/10/23 03:43:06;;;;;;;4.00;2.10;;;;;;;5.59;100.00;100377.47;5043243;28;20684;-66
2023/10/23 03:45:36;;;;;;;6.83;1.60;;;;;;;5.74;100.00;100375.34;5041332;28;20205;-66
2023/10/23 03:48:03;;;;;;;2.90;1.87;;;;;;;5.87;100.00;100381.88;5041901;28;20308;-66
2023/10/23 03:50:30;;;;;;;3.97;2.00;;;;;;;5.93;100.00;100374.22;5040998;28;20220;-66
2023/10/23 03:52:57;;;;;;;2.70;1.67;;;;;;;6.05;100.00;100369.38;5043251;28;20229;-66
2023/10/23 03:55:24;;;;;;;3.27;1.77;;;;;;;6.16;100.00;100367.06;5042233;28;20216;-66
2023/10/23 03:57:50;;;;;;;5.57;2.10;;;;;;;6.20;100.00;100363.69;5042787;28;20262;-66
2023/10/23 04:00:17;;;;;;;4.57;2.20;;;;;;;6.17;100.00;100363.59;5041540;28;20221;-66
2023/10/23 04:02:43;;;;;;;6.30;1.97;;;;;;;6.15;100.00;100360.91;5040208;28;20207;-66
2023/10/23 04:05:10;;;;;;;4.07;2.13;;;;;;;6.13;100.00;100359.97;5041280;28;20265;-66
2023/10/23 04:07:36;;;;;;;6.10;2.07;;;;;;;6.09;100.00;100352.84;5041447;28;20207;-66
2023/10/23 04:10:07;;;;;;;8.33;2.13;;;;;;;6.15;100.00;100357.41;5064147;22;20281;-69
2023/10/23 04:12:33;;;;;;;2.70;1.93;;;;;;;6.19;100.00;100360.16;5040876;28;20224;-69
2023/10/23 04:14:59;;;;;;;4.83;1.97;;;;;;;6.16;100.00;100361.81;5040186;28;20663;-69
2023/10/23 04:17:26;;;;;;;4.77;1.90;;;;;;;6.10;100.00;100357.25;5042575;28;20212;-70
2023/10/23 04:19:52;;;;;;;2.20;1.47;;;;;;;6.25;100.00;100359.44;5042022;28;20495;-70
2023/10/23 04:22:19;;;;;;;12.00;2.07;;;;;;;6.28;100.00;100354.28;5041827;28;20216;-70
2023/10/23 04:24:47;;;;;;;3.17;1.70;;;;;;;6.27;100.00;100357.75;5040470;28;20579;-70
2023/10/23 04:27:13;;;;;;;15.57;2.23;;;;;;;6.26;100.00;100350.72;5041859;28;20210;-70
2023/10/23 04:29:40;;;;;;;4.50;1.83;;;;;;;6.20;100.00;100345.28;5041150;28;20226;-70
2023/10/23 04:32:06;;;;;;;12.50;2.00;;;;;;;6.14;100.00;100342.47;5041161;28;20230;-70
2023/10/23 04:34:32;;;;;;;7.43;1.93;;;;;;;6.09;100.00;100344.97;5042455;28;20203;-70
2023/10/23 04:36:59;;;;;;;3.93;1.93;;;;;;;6.06;100.00;100344.88;5046751;28;20199;-70
2023/10/23 04:39:25;;;;;;;2.57;1.60;;;;;;;6.05;100.00;100340.47;5047366;28;20462;-70
2023/10/23 04:41:52;;;;;;;3.17;1.93;;;;;;;6.01;100.00;100340.31;5043785;28;20231;-70
2023/10/23 04:44:18;;;;;;;3.30;1.40;;;;;;;6.04;100.00;100335.16;5048125;28;20216;-69
2023/10/23 04:46:46;;;;;;;2.43;1.27;;;;;;;5.96;100.00;100341.03;5045801;28;20279;-70
2023/10/23 04:49:12;;;;;;;3.37;1.90;;;;;;;5.90;100.00;100338.22;5048400;28;20218;-70
2023/10/23 04:51:39;;;;;;;3.03;1.60;;;;;;;5.87;100.00;100337.22;5029833;28;20264;-70
2023/10/23 04:54:05;;;;;;;2.33;1.47;;;;;;;5.83;100.00;100337.97;5048665;28;20338;-70
2023/10/23 04:56:32;;;;;;;3.37;1.73;;;;;;;5.71;100.00;100334.94;5049669;28;20256;-70
2023/10/23 04:58:58;;;;;;;6.83;1.87;;;;;;;5.60;100.00;100338.13;5042246;28;20214;-70
2023/10/23 05:01:25;;;;;;;3.37;1.57;;;;;;;5.64;100.00;100333.88;5027845;28;20215;-70
2023/10/23 05:03:51;;;;;;;4.07;2.00;;;;;;;5.58;100.00;100339.78;5046599;28;20675;-70
2023/10/23 05:06:24;;;;;;;2.47;1.57;;;;;;;5.51;100.00;100343.06;5043920;28;20350;-70
2023/10/23 05:08:50;;;;;;;5.50;1.77;;;;;;;5.53;100.00;100344.00;5044933;28;20207;-70
2023/10/23 05:11:17;;;;;;;4.10;1.77;;;;;;;5.48;100.00;100340.34;5046083;28;20246;-70
2023/10/23 05:13:45;;;;;;;3.97;1.90;;;;;;;5.45;100.00;100342.88;5028817;28;20681;-70
2023/10/23 05:16:15;;;;;;;2.63;1.30;;;;;;;5.41;100.00;100342.72;5028093;28;20691;-70
2023/10/23 05:18:41;;;;;;;3.30;1.57;;;;;;;5.37;100.00;100339.09;5044698;28;20289;-70
2023/10/23 05:21:10;;;;;;;4.10;2.07;;;;;;;5.44;100.00;100338.47;5030688;28;20689;-70
2023/10/23 05:23:40;;;;;;;5.20;1.87;;;;;;;5.35;100.00;100336.44;5043015;28;20203;-70
2023/10/23 05:26:10;;;;;;;2.87;1.93;;;;;;;5.35;100.00;100340.78;5048704;28;20207;-70
2023/10/23 05:28:42;;;;;;;3.77;1.83;;;;;;;5.35;100.00;100346.03;5045168;28;20203;-70
2023/10/23 05:31:09;;;;;;;2.60;1.80;;;;;;;5.30;100.00;100352.88;5026935;28;20570;-70
2023/10/23 05:33:36;;;;;;;6.60;1.87;;;;;;;5.30;100.00;100359.00;5047573;28;20261;-70
2023/10/23 05:36:08;;;;;;;5.23;2.20;;;;;;;5.33;100.00;100359.13;5045113;28;20290;-70
2023/10/23 05:38:35;;;;;;;12.90;2.50;;;;;;;5.39;100.00;100358.44;5029192;28;20699;-74
2023/10/23 05:41:02;;;;;;;3.30;1.93;;;;;;;5.47;100.00;100361.31;5044837;28;20220;-75
2023/10/23 05:43:29;;;;;;;3.13;1.60;;;;;;;5.52;100.00;100360.59;5030554;28;20236;-75
2023/10/23 05:45:55;;;;;;;2.57;1.93;;;;;;;5.62;100.00;100367.09;5046056;28;20209;-75
2023/10/23 05:48:22;;;;;;;4.00;1.87;;;;;;;5.71;100.00;100371.75;5025524;28;20306;-75
2023/10/23 05:51:05;;;;;;;3.57;1.90;;;;;;;5.86;100.00;100378.38;5025819;28;20284;-74
2023/10/23 05:53:32;;;;;;;6.13;2.63;;;;;;;5.96;100.00;100369.94;5037300;28;20207;-75
2023/10/23 05:56:03;;;;;;;9.83;3.30;;;;;;;6.04;100.00;100371.97;5046080;28;20200;-74
2023/10/23 05:58:33;;;;;;;10.70;3.10;;;;;;;6.19;100.00;100383.81;5025939;28;20211;-74
2023/10/23 06:01:04;;;;;;;6.30;2.90;;;;;;;6.23;100.00;100380.44;5029514;28;20715;-74
2023/10/23 06:03:31;;;;;;;6.33;3.10;;;;;;;6.22;100.00;100386.53;5038394;28;20669;-74
2023/10/23 06:05:57;;;;;;;6.50;2.57;;;;;;;6.25;100.00;100383.13;5032033;28;20243;-72
2023/10/23 06:08:24;;;;;;;5.63;2.50;;;;;;;6.29;100.00;100380.63;5043054;28;20206;-75
2023/10/23 06:10:50;;;;;;;13.30;3.43;;;;;;;6.41;100.00;100380.13;5041759;28;20222;-75
2023/10/23 06:13:16;;;;;;;4.20;2.50;;;;;;;6.49;100.00;100385.59;5041440;28;20205;-75
2023/10/23 06:15:44;;;;;;;5.93;3.00;;;;;;;6.42;100.00;100391.53;5045513;28;20206;-75
2023/10/23 06:18:11;;;;;;;7.23;2.90;;;;;;;6.41;100.00;100398.53;5044354;28;20303;-75
2023/10/23 06:20:37;;;;;;;8.53;3.77;;;;;;;6.42;100.00;100386.28;5034170;28;20311;-74
2023/10/23 06:23:03;;;;;;;7.53;3.40;;;;;;;6.47;100.00;100387.28;5043718;28;20207;-74
2023/10/23 06:25:31;;;;;;;10.17;3.30;;;;;;;6.47;100.00;100390.81;5042191;28;20207;-74
2023/10/23 06:27:58;;;;;;;7.70;3.27;;;;;;;6.40;100.00;100388.81;5037684;28;20213;-73
2023/10/23 06:30:27;;;;;;;10.40;2.70;;;;;;;6.36;100.00;100392.22;5047215;28;20225;-74
2023/10/23 06:32:54;;;;;;;6.60;2.60;;;;;;;6.37;100.00;100395.72;5044366;28;20203;-74
2023/10/23 06:35:21;;;;;;;6.73;2.23;;;;;;;6.35;100.00;100397.44;5047726;28;20266;-74
2023/10/23 06:37:48;;;;;;;6.47;2.27;;;;;;;6.43;100.00;100390.69;5042014;28;20211;-74
2023/10/23 06:40:14;;;;;;;6.27;2.60;;;;;;;6.48;100.00;100394.34;5043758;28;20221;-74
2023/10/23 06:42:41;;;;;;;7.53;2.80;;;;;;;6.52;100.00;100391.84;5038525;28;20651;-74
2023/10/23 06:45:08;;;;;;;6.30;2.77;;;;;;;6.54;100.00;100387.53;5026317;28;20201;-74
2023/10/23 06:47:34;;;;;;;10.70;3.20;;;;;;;6.54;100.00;100386.63;5028210;28;20206;-74
2023/10/23 06:50:02;;;;;;;10.77;3.50;;;;;;;6.64;100.00;100386.03;5042832;28;20208;-73
2023/10/23 06:52:29;;;;;;;13.97;3.30;;;;;;;6.81;100.00;100384.81;5042275;28;20274;-74
2023/10/23 06:54:55;;;;;;;7.00;2.73;;;;;;;6.82;100.00;100389.22;5046112;28;20248;-74
2023/10/23 06:57:22;;;;;;;10.07;3.30;;;;;;;6.82;100.00;100396.22;5042302;28;20215;-74
2023/10/23 06:59:50;;;;;;;8.80;3.60;;;;;;;7.01;100.00;100395.88;5043712;28;20237;-75
2023/10/23 07:02:16;;;;;;;10.73;3.90;;;;;;;7.05;100.00;100392.47;5043049;28;20934;-74
2023/10/23 07:04:43;;;;;;;11.37;3.10;;;;;;;7.04;100.00;100393.31;5038742;28;20212;-74
2023/10/23 07:07:09;;;;;;;18.80;4.70;;;;;;;7.05;100.00;100391.56;5040008;28;20218;-74
2023/10/23 07:09:58;;;;;;;11.03;4.07;;;;;;;7.21;100.00;100399.97;5040172;28;20212;-74
2023/10/23 07:12:25;;;;;;;19.70;4.40;;;;;;;7.24;100.00;100396.50;5040643;28;20621;-74
2023/10/23 07:14:52;;;;;;;16.40;4.30;;;;;;;7.14;100.00;100391.81;5043558;28;20255;-74
2023/10/23 07:17:19;;;;;;;13.47;3.73;;;;;;;7.21;100.00;100389.41;5029836;28;20617;-74
2023/10/23 07:19:45;;;;;;;12.43;4.50;;;;;;;7.22;100.00;100392.94;5042554;28;20821;-74
2023/10/23 07:22:12;;;;;;;18.20;4.13;;;;;;;7.38;100.00;100391.59;5042299;28;20250;-74
2023/10/23 07:24:39;;;;;;;13.53;3.77;;;;;;;7.34;100.00;100377.47;5048247;28;20708;-73
2023/10/23 07:27:05;;;;;;;11.83;5.30;;;;;;;7.37;100.00;100374.00;5042894;28;20199;-73
2023/10/23 07:29:31;;;;;;;13.13;5.63;;;;;;;7.30;100.00;100359.78;5044022;28;20210;-74
2023/10/23 07:31:58;;;;;;;15.90;5.27;;;;;;;7.29;100.00;100365.03;5041441;28;20216;-74
2023/10/23 07:34:25;;;;;;;13.60;6.30;;;;;;;7.32;100.00;100371.25;5047827;28;20238;-74
2023/10/23 07:36:51;;;;;;;16.97;5.93;;;;;;;7.35;100.00;100355.53;5046075;28;20203;-74
2023/10/23 07:39:18;;;;;;;14.37;6.33;;;;;;;7.54;100.00;100348.97;5049331;28;20233;-77
2023/10/23 07:41:44;;;;;;;16.30;6.63;;;;;;;7.61;100.00;100336.84;5049130;28;20325;-74
2023/10/23 07:44:11;;;;;;;16.80;6.77;;;;;;;7.70;100.00;100331.81;5053712;28;20199;-73
2023/10/23 07:46:37;;;;;;;15.83;6.20;;;;;;;7.74;100.00;100326.63;5035755;28;20203;-72
2023/10/23 07:49:04;;;;;;;18.37;6.43;;;;;;;7.76;100.00;100331.94;5053967;28;20195;-72
2023/10/23 07:51:30;;;;;;;14.83;6.10;;;;;;;7.81;100.00;100328.56;5064783;28;20274;-71
2023/10/23 07:53:56;;;;;;;14.30;6.30;;;;;;;7.88;100.00;100337.50;5068706;28;20204;-71
2023/10/23 07:56:23;;;;;;;13.03;6.07;;;;;;;7.91;100.00;100337.56;5058090;28;20674;-71
2023/10/23 07:58:51;;;;;;;11.37;5.17;;;;;;;7.98;100.00;100347.38;5051918;28;20242;-71
2023/10/23 08:01:17;;;;;;;15.27;6.27;;;;;;;8.07;100.00;100342.34;5051456;28;20227;-71
2023/10/23 08:03:47;;;;;;;15.03;6.57;;;;;;;8.15;100.00;100345.16;5053647;28;20678;-70
2023/10/23 08:06:15;;;;;;;18.03;7.70;;;;;;;8.21;100.00;100344.38;5050318;28;20208;-72
2023/10/23 08:08:43;;;;;;;17.57;6.77;;;;;;;8.29;100.00;100345.44;5028511;28;20221;-70
2023/10/23 08:11:11;;;;;;;24.37;8.83;;;;;;;8.54;100.00;100336.34;5048753;28;20313;-73
2023/10/23 08:13:38;;;;;;;19.37;7.97;;;;;;;8.76;100.00;100335.91;5030689;28;20207;-72
2023/10/23 08:16:05;;;;;;;17.20;7.83;;;;;;;8.85;100.00;100338.75;5047833;28;20205;-72
2023/10/23 08:18:34;;;;;;;21.03;7.97;;;;;;;8.96;100.00;100331.03;5047621;28;20294;-72
2023/10/23 08:21:09;;;;;;;22.77;9.03;;;;;;;8.86;100.00;100332.59;5046617;28;20220;-72
2023/10/23 08:23:35;;;;;;;33.63;11.20;;;;;;;8.93;100.00;100337.13;5043656;28;20663;-72
2023/10/23 08:26:03;;;;;;;27.90;11.07;;;;;;;8.96;100.00;100345.13;5052386;28;20200;-72
2023/10/23 08:28:30;;;;;;;26.50;9.80;;;;;;;9.09;100.00;100333.00;5047908;28;20199;-71
2023/10/23 08:31:17;;;;;;;26.40;10.53;;;;;;;9.21;100.00;100325.34;5049732;28;20249;-71
2023/10/23 08:34:03;;;;;;;25.93;11.33;;;;;;;9.54;100.00;100337.31;5048462;28;20288;-71
2023/10/23 08:36:30;;;;;;;33.37;11.77;;;;;;;9.56;100.00;100333.84;5046743;28;20253;-72
2023/10/23 08:38:56;;;;;;;35.90;12.73;;;;;;;9.61;100.00;100331.31;5045190;28;20208;-73
2023/10/23 08:41:23;;;;;;;32.93;12.07;;;;;;;9.57;100.00;100324.16;5046495;28;20365;-73
2023/10/23 08:43:49;;;;;;;32.87;13.17;;;;;;;9.52;100.00;100317.91;5047194;28;20662;-73
2023/10/23 08:46:16;;;;;;;31.23;13.37;;;;;;;9.43;100.00;100318.66;5045926;28;20663;-73
2023/10/23 08:48:43;;;;;;;39.73;13.10;;;;;;;9.29;100.00;100317.53;5045997;28;20203;-73
2023/10/23 08:51:09;;;;;;;33.80;12.50;;;;;;;9.32;100.00;100315.84;5049532;28;20227;-73
2023/10/23 08:53:48;;;;;;;36.63;11.87;;;;;;;9.44;100.00;100312.50;5050146;28;20202;-73
2023/10/23 08:56:39;;;;;;;28.17;11.50;;;;;;;9.50;100.00;100317.88;5042952;28;20263;-73
2023/10/23 08:59:08;;;;;;;29.87;12.07;;;;;;;9.54;100.00;100305.59;5043055;28;20210;-73
2023/10/23 09:01:35;;;;;;;33.80;12.50;;;;;;;9.61;100.00;100308.41;5046712;28;20473;-73
2023/10/23 09:04:04;;;;;;;26.90;11.10;;;;;;;9.72;100.00;100311.19;5049775;28;20279;-73
2023/10/23 09:06:33;;;;;;;27.00;11.20;;;;;;;9.82;100.00;100304.28;5048143;28;20264;-74
2023/10/23 09:09:00;;;;;;;24.77;10.13;;;;;;;9.98;100.00;100306.28;5036132;28;20204;-73
2023/10/23 09:11:47;;;;;;;26.00;11.07;;;;;;;10.05;100.00;100298.47;5048466;28;20266;-72
2023/10/23 09:14:27;;;;;;;24.40;10.60;;;;;;;10.41;100.00;100283.97;5048749;28;20198;-73
2023/10/23 09:16:56;;;;;;;24.27;10.83;;;;;;;10.55;100.00;100279.72;5030021;28;20199;-73
2023/10/23 09:19:41;;;;;;;21.67;10.57;;;;;;;10.81;100.00;100263.25;5048788;28;20210;-73
2023/10/23 09:22:08;;;;;;;29.03;11.43;;;;;;;11.08;100.00;100255.53;5049018;28;20230;-74
2023/10/23 09:24:35;;;;;;;28.43;12.57;;;;;;;11.33;100.00;100261.97;5045095;28;20206;-74
2023/10/23 09:27:03;;;;;;;30.67;12.93;;;;;;;11.63;100.00;100261.31;5047371;28;20287;-74
2023/10/23 09:29:29;;;;;;;29.80;11.27;;;;;;;11.60;100.00;100259.50;5047593;28;20680;-73
2023/10/23 09:31:58;;;;;;;24.77;11.47;;;;;;;11.87;100.00;100255.28;5047762;28;20222;-73
2023/10/23 09:34:25;;;;;;;24.97;11.63;;;;;;;11.96;100.00;100250.03;5030923;28;20210;-73
2023/10/23 09:36:52;;;;;;;25.03;11.17;;;;;;;12.15;100.00;100251.03;5046866;28;20210;-73
2023/10/23 09:39:22;;;;;;;23.13;10.93;;;;;;;12.33;100.00;100251.09;5043076;28;20249;-76
2023/10/23 09:41:50;;;;;;;28.80;12.53;;;;;;;12.45;100.00;100244.97;5047008;28;20258;-82
2023/10/23 09:44:16;;;;;;;26.00;11.20;;;;;;;12.56;100.00;100245.88;5029540;28;20206;-82
2023/10/23 09:46:43;;;;;;;27.90;11.83;;;;;;;12.80;100.00;100247.69;5048308;28;20243;-83
2023/10/23 09:49:10;;;;;;;23.37;12.30;;;;;;;13.09;100.00;100255.72;5045860;28;20203;-82
2023/10/23 09:51:41;;;;;;;25.53;11.43;;;;;;;13.21;100.00;100252.22;5045911;28;20498;-79
2023/10/23 09:54:16;;;;;;;24.13;10.87;;;;;;;12.96;100.00;100257.50;5027222;28;20199;-79
2023/10/23 09:56:53;;;;;;;24.90;10.30;;;;;;;13.07;100.00;100261.03;5045656;28;20615;-78
2023/10/23 09:59:37;;;;;;;28.23;10.70;;;;;;;13.12;100.00;100261.94;5044671;28;20410;-77
2023/10/23 10:02:06;;;;;;;26.03;9.77;;;;;;;13.10;100.00;100250.41;5027796;28;20231;-77
2023/10/23 10:04:48;;;;;;;20.97;9.13;;;;;;;13.16;100.00;100250.41;5046697;28;20221;-76
2023/10/23 10:07:23;;;;;;;20.73;9.80;;;;;;;13.20;100.00;100235.38;5043432;28;20203;-76
2023/10/23 10:09:50;;;;;;;22.57;9.07;;;;;;;13.23;100.00;100235.41;5044192;28;20198;-75
2023/10/23 10:12:18;;;;;;;19.23;9.13;;;;;;;13.33;100.00;100237.16;5039785;22;20318;-69
2023/10/23 10:14:46;;;;;;;23.43;9.77;;;;;;;13.38;100.00;100232.72;5025547;28;20680;-70
2023/10/23 10:17:16;;;;;;;21.10;9.43;;;;;;;13.43;100.00;100230.06;5024757;28;20200;-70
2023/10/23 10:19:45;;;;;;;22.03;9.83;;;;;;;13.57;100.00;100225.59;5027152;28;20225;-67
2023/10/23 10:22:19;;;;;;;18.50;8.73;;;;;;;13.77;100.00;100237.09;5041334;28;20214;-68
2023/10/23 10:24:47;;;;;;;18.03;9.60;;;;;;;13.85;100.00;100221.13;5045017;28;20211;-68
2023/10/23 10:27:14;;;;;;;24.73;10.37;;;;;;;13.92;100.00;100236.19;5048076;28;20206;-68
2023/10/23 10:29:40;;;;;;;26.03;11.30;;;;;;;14.04;100.00;100229.94;5044652;28;20206;-68
2023/10/23 10:32:11;;;;;;;22.90;10.07;;;;;;;14.36;100.00;100221.81;5047883;28;20218;-69
2023/10/23 10:34:45;;;;;;;24.93;10.07;;;;;;;14.54;100.00;100218.22;5048725;28;20205;-68
2023/10/23 10:37:13;;;;;;;25.70;9.93;;;;;;;14.77;100.00;100207.41;5045970;28;20214;-68
2023/10/23 10:40:03;;;;;;;24.67;10.83;;;;;;;14.98;99.28;100207.25;5046431;28;20662;-67
2023/10/23 10:42:34;;;;;;;25.17;9.83;;;;;;;15.01;97.94;100205.47;5043426;28;20226;-69
2023/10/23 10:45:15;;;;;;;23.30;9.17;;;;;;;15.15;97.25;100213.34;5045193;28;20207;-68
2023/10/23 10:47:53;;;;;;;14.97;5.30;;;;;;;15.13;89.60;100196.47;5039821;28;20206;-68
2023/10/23 10:50:31;;;;;;;9.60;4.40;;;;;;;15.32;89.51;100195.44;5051659;28;20253;-69
2023/10/23 10:53:05;;;;;;;7.70;3.13;;;;;;;15.49;85.57;100173.00;5047859;28;20241;-68
2023/10/23 10:55:36;;;;;;;4.90;2.17;;;;;;;15.64;81.08;100187.16;5043701;28;20202;-69
2023/10/23 10:58:04;;;;;;;4.53;1.80;;;;;;;15.82;80.13;100185.16;5049963;28;20229;-68
2023/10/23 11:00:33;;;;;;;7.27;1.93;;;;;;;15.85;78.37;100179.78;5047665;28;20288;-68
2023/10/23 11:03:00;;;;;;;6.10;1.90;;;;;;;15.74;77.51;100165.69;5043211;28;20238;-68
2023/10/23 11:05:27;;;;;;;4.80;2.07;;;;;;;15.81;78.06;100157.56;5043418;28;20206;-68
2023/10/23 11:07:54;;;;;;;5.33;1.97;;;;;;;16.10;76.96;100159.91;5049590;28;20261;-67
2023/10/23 11:10:21;;;;;;;5.57;1.83;;;;;;;16.20;75.01;100155.31;5047733;28;20248;-68
2023/10/23 11:12:50;;;;;;;4.90;1.83;;;;;;;16.40;73.84;100147.88;5042253;28;20667;-68
2023/10/23 11:15:17;;;;;;;4.20;1.90;;;;;;;16.48;72.35;100140.66;5049323;28;20226;-68
2023/10/23 11:17:44;;;;;;;6.53;1.57;;;;;;;16.46;72.11;100131.78;5038777;28;20206;-68
2023/10/23 11:20:14;;;;;;;5.97;2.03;;;;;;;16.59;71.13;100144.06;5041616;28;20277;-68
2023/10/23 11:22:44;;;;;;;4.57;1.60;;;;;;;16.50;70.79;100141.53;5048780;28;20215;-68